Time,TemperatureF,DewpointF,PressureIn,WindDirection,WindDirectionDegrees,WindSpeedMPH,WindSpeedGustMPH,Humidity,HourlyPrecipIn,Conditions,Clouds,dailyrainin,SolarRadiationWatts/m^2,SoftwareType,DateUTC
2013-03-14 00:12:00,49.0,33.0,-100.00,NW,320,4.0,15.0,53,0.00,,,0.00,0.000000,,2013-03-14 04:12:00,
2013-03-14 00:22:00,49.0,33.0,-100.00,NW,320,4.0,15.0,53,0.00,,,0.00,0.000000,,2013-03-14 04:22:00,
2013-03-14 00:53:00,48.0,32.0,-100.00,NW,319,6.0,16.0,54,0.00,,,0.00,0.000000,,2013-03-14 04:53:00,
2013-03-14 01:02:00,48.0,32.0,-100.00,NW,319,6.0,16.0,54,0.00,,,0.00,0.000000,,2013-03-14 05:02:00,
2013-03-14 01:13:00,48.0,32.0,-100.00,NW,319,6.0,16.0,54,0.00,,,0.00,0.000000,,2013-03-14 05:13:00,
2013-03-14 01:22:00,48.0,32.0,-100.00,NW,319,6.0,16.0,54,0.00,,,0.00,0.000000,,2013-03-14 05:22:00,
2013-03-14 01:53:00,46.0,29.0,-100.00,NW,318,7.0,18.0,52,0.00,,,0.00,0.000000,,2013-03-14 05:53:00,
2013-03-14 02:02:00,46.0,29.0,-100.00,NW,318,7.0,18.0,52,0.00,,,0.00,0.000000,,2013-03-14 06:02:00,
2013-03-14 02:12:00,46.0,29.0,-100.00,NW,318,7.0,18.0,52,0.00,,,0.00,0.000000,,2013-03-14 06:12:00,
2013-03-14 02:22:00,46.0,29.0,-100.00,NW,318,7.0,18.0,52,0.00,,,0.00,0.000000,,2013-03-14 06:22:00,
2013-03-14 02:52:00,45.0,28.0,-100.00,WNW,293,5.0,19.0,51,0.00,,,0.00,0.000000,,2013-03-14 06:52:00,
2013-03-14 03:02:00,45.0,28.0,-100.00,WNW,293,5.0,19.0,51,0.00,,,0.00,0.000000,,2013-03-14 07:02:00,
2013-03-14 03:12:00,45.0,28.0,-100.00,WNW,293,5.0,19.0,51,0.00,,,0.00,0.000000,,2013-03-14 07:12:00,
2013-03-14 03:22:00,45.0,28.0,-100.00,WNW,293,5.0,19.0,51,0.00,,,0.00,0.000000,,2013-03-14 07:22:00,
2013-03-14 03:52:00,43.0,26.0,-100.00,NW,304,7.0,16.0,51,0.00,,,0.00,0.000000,,2013-03-14 07:52:00,
2013-03-14 04:02:00,43.0,26.0,-100.00,NW,304,7.0,16.0,51,0.00,,,0.00,0.000000,,2013-03-14 08:02:00,
2013-03-14 04:12:00,43.0,26.0,-100.00,NW,304,7.0,16.0,51,0.00,,,0.00,0.000000,,2013-03-14 08:12:00,
2013-03-14 04:22:00,43.0,26.0,-100.00,NW,304,7.0,16.0,51,0.00,,,0.00,0.000000,,2013-03-14 08:22:00,
2013-03-14 04:52:00,41.0,24.0,-100.00,WNW,294,7.0,18.0,51,0.00,,,0.00,0.000000,,2013-03-14 08:52:00,
2013-03-14 05:02:00,41.0,24.0,-100.00,WNW,294,7.0,18.0,51,0.00,,,0.00,0.000000,,2013-03-14 09:02:00,
2013-03-14 05:12:00,41.0,24.0,-100.00,WNW,294,7.0,18.0,51,0.00,,,0.00,0.000000,,2013-03-14 09:12:00,
2013-03-14 05:22:00,41.0,24.0,-100.00,WNW,294,7.0,18.0,51,0.00,,,0.00,0.000000,,2013-03-14 09:22:00,
2013-03-14 05:52:00,39.0,23.0,-100.00,WNW,286,8.0,19.0,52,0.00,,,0.00,0.000000,,2013-03-14 09:52:00,
2013-03-14 06:02:00,39.0,23.0,-100.00,WNW,286,8.0,19.0,52,0.00,,,0.00,0.000000,,2013-03-14 10:02:00,
2013-03-14 06:12:00,39.0,23.0,-100.00,WNW,286,8.0,19.0,52,0.00,,,0.00,0.000000,,2013-03-14 10:12:00,
2013-03-14 06:22:00,39.0,23.0,-100.00,WNW,286,8.0,19.0,52,0.00,,,0.00,0.000000,,2013-03-14 10:22:00,
2013-03-14 06:52:00,39.0,23.0,-100.00,WNW,301,7.0,18.0,52,0.00,,,0.00,0.000000,,2013-03-14 10:52:00,
2013-03-14 07:02:00,39.0,23.0,-100.00,WNW,301,7.0,18.0,52,0.00,,,0.00,0.000000,,2013-03-14 11:02:00,
2013-03-14 07:12:00,39.0,23.0,-100.00,WNW,301,7.0,18.0,52,0.00,,,0.00,0.000000,,2013-03-14 11:12:00,
2013-03-14 07:22:00,39.0,23.0,-100.00,WNW,301,7.0,18.0,52,0.00,,,0.00,0.000000,,2013-03-14 11:22:00,
2013-03-14 07:53:00,39.0,23.0,-100.00,NW,305,8.0,25.0,52,0.00,,,0.00,1.000000,,2013-03-14 11:53:00,
2013-03-14 08:02:00,39.0,23.0,-100.00,NW,305,8.0,25.0,52,0.00,,,0.00,1.000000,,2013-03-14 12:02:00,
2013-03-14 08:12:00,39.0,23.0,-100.00,NW,305,8.0,25.0,52,0.00,,,0.00,1.000000,,2013-03-14 12:12:00,
2013-03-14 08:22:00,39.0,23.0,-100.00,NW,305,8.0,25.0,52,0.00,,,0.00,1.000000,,2013-03-14 12:22:00,
2013-03-14 08:52:00,40.0,24.0,-100.00,WNW,297,6.0,18.0,52,0.00,,,0.00,75.000000,,2013-03-14 12:52:00,
2013-03-14 09:03:00,40.0,24.0,-100.00,WNW,297,6.0,18.0,52,0.00,,,0.00,75.000000,,2013-03-14 13:03:00,
2013-03-14 09:13:00,40.0,24.0,-100.00,WNW,297,6.0,18.0,52,0.00,,,0.00,75.000000,,2013-03-14 13:13:00,
2013-03-14 09:22:00,40.0,24.0,-100.00,WNW,297,6.0,18.0,52,0.00,,,0.00,75.000000,,2013-03-14 13:22:00,
2013-03-14 09:52:00,41.0,25.0,-100.00,NW,308,7.0,19.0,52,0.00,,,0.00,108.000000,,2013-03-14 13:52:00,
2013-03-14 10:02:00,41.0,25.0,-100.00,NW,308,7.0,19.0,52,0.00,,,0.00,108.000000,,2013-03-14 14:02:00,
2013-03-14 10:12:00,41.0,25.0,-100.00,NW,308,7.0,19.0,52,0.00,,,0.00,108.000000,,2013-03-14 14:12:00,
2013-03-14 10:22:00,41.0,25.0,-100.00,NW,308,7.0,19.0,52,0.00,,,0.00,108.000000,,2013-03-14 14:22:00,
2013-03-14 10:53:00,43.0,26.0,-100.00,NW,309,6.0,18.0,50,0.00,,,0.00,165.000000,,2013-03-14 14:53:00,
2013-03-14 11:02:00,43.0,26.0,-100.00,NW,309,6.0,18.0,50,0.00,,,0.00,165.000000,,2013-03-14 15:02:00,
2013-03-14 11:12:00,43.0,26.0,-100.00,NW,309,6.0,18.0,50,0.00,,,0.00,165.000000,,2013-03-14 15:12:00,
2013-03-14 11:22:00,43.0,26.0,-100.00,NW,309,6.0,18.0,50,0.00,,,0.00,165.000000,,2013-03-14 15:22:00,
2013-03-14 11:52:00,45.0,27.0,-100.00,NNW,328,6.0,15.0,48,0.00,,,0.00,686.000000,,2013-03-14 15:52:00,
2013-03-14 12:03:00,45.0,27.0,-100.00,NNW,328,6.0,15.0,48,0.00,,,0.00,686.000000,,2013-03-14 16:03:00,
2013-03-14 12:13:00,45.0,27.0,-100.00,NNW,328,6.0,15.0,48,0.00,,,0.00,686.000000,,2013-03-14 16:13:00,
2013-03-14 12:23:00,45.0,27.0,-100.00,NNW,328,6.0,15.0,48,0.00,,,0.00,686.000000,,2013-03-14 16:23:00,
2013-03-14 12:52:00,46.0,27.0,-100.00,NNW,338,6.0,14.0,48,0.00,,,0.00,808.000000,,2013-03-14 16:52:00,
2013-03-14 13:02:00,46.0,27.0,-100.00,NNW,338,6.0,14.0,48,0.00,,,0.00,808.000000,,2013-03-14 17:02:00,
2013-03-14 13:13:00,46.0,27.0,-100.00,NNW,338,6.0,14.0,48,0.00,,,0.00,808.000000,,2013-03-14 17:13:00,
2013-03-14 13:23:00,46.0,27.0,-100.00,NNW,338,6.0,14.0,48,0.00,,,0.00,808.000000,,2013-03-14 17:23:00,
2013-03-14 13:53:00,47.0,27.0,-100.00,NW,319,6.0,13.0,46,0.00,,,0.00,867.000000,,2013-03-14 17:53:00,
2013-03-14 14:03:00,47.0,27.0,-100.00,NW,319,6.0,13.0,46,0.00,,,0.00,867.000000,,2013-03-14 18:03:00,
2013-03-14 14:13:00,47.0,27.0,-100.00,NW,319,6.0,13.0,46,0.00,,,0.00,867.000000,,2013-03-14 18:13:00,
2013-03-14 14:23:00,47.0,27.0,-100.00,NW,319,6.0,13.0,46,0.00,,,0.00,867.000000,,2013-03-14 18:23:00,
2013-03-14 14:53:00,50.0,29.0,-100.00,West,281,5.0,14.0,45,0.00,,,0.00,861.000000,,2013-03-14 18:53:00,
2013-03-14 15:03:00,50.0,29.0,-100.00,West,281,5.0,14.0,45,0.00,,,0.00,861.000000,,2013-03-14 19:03:00,
2013-03-14 15:12:00,50.0,29.0,-100.00,West,281,5.0,14.0,45,0.00,,,0.00,861.000000,,2013-03-14 19:12:00,
2013-03-14 15:23:00,50.0,29.0,-100.00,West,281,5.0,14.0,45,0.00,,,0.00,861.000000,,2013-03-14 19:23:00,
2013-03-14 16:52:00,52.0,30.0,-100.00,WNW,287,4.0,12.0,43,-99.99,,,0.00,650.000000,,2013-03-14 20:52:00,
2013-03-14 17:03:00,52.0,30.0,-100.00,WNW,287,4.0,12.0,43,-99.99,,,0.00,650.000000,,2013-03-14 21:03:00,
2013-03-14 17:13:00,52.0,30.0,-100.00,WNW,287,4.0,12.0,43,-99.99,,,0.00,650.000000,,2013-03-14 21:13:00,
2013-03-14 17:23:00,52.0,30.0,-100.00,WNW,287,4.0,12.0,43,-99.99,,,0.00,650.000000,,2013-03-14 21:23:00,
2013-03-14 17:53:00,52.0,30.0,-100.00,NW,311,4.0,11.0,43,0.00,,,0.00,429.000000,,2013-03-14 21:53:00,
2013-03-14 18:04:00,52.0,30.0,-100.00,NW,311,4.0,11.0,43,0.00,,,0.00,429.000000,,2013-03-14 22:04:00,
2013-03-14 18:13:00,52.0,30.0,-100.00,NW,311,4.0,11.0,43,0.00,,,0.00,429.000000,,2013-03-14 22:13:00,
2013-03-14 18:23:00,52.0,30.0,-100.00,NW,311,4.0,11.0,43,0.00,,,0.00,429.000000,,2013-03-14 22:23:00,
2013-03-14 18:53:00,50.0,29.0,-100.00,West,276,4.0,11.0,45,0.00,,,0.00,213.000000,,2013-03-14 22:53:00,
2013-03-14 19:03:00,50.0,29.0,-100.00,West,276,4.0,11.0,45,0.00,,,0.00,213.000000,,2013-03-14 23:03:00,
2013-03-14 19:12:00,50.0,29.0,-100.00,West,276,4.0,11.0,45,0.00,,,0.00,213.000000,,2013-03-14 23:12:00,
2013-03-14 19:23:00,50.0,29.0,-100.00,West,276,4.0,11.0,45,0.00,,,0.00,213.000000,,2013-03-14 23:23:00,
2013-03-14 19:54:00,43.0,28.0,-100.00,WSW,256,2.0,8.0,55,0.00,,,0.00,20.000000,,2013-03-14 23:54:00,
2013-03-14 20:02:00,43.0,28.0,-100.00,WSW,256,2.0,8.0,55,0.00,,,0.00,20.000000,,2013-03-15 00:02:00,
2013-03-14 20:12:00,43.0,28.0,-100.00,WSW,256,2.0,8.0,55,0.00,,,0.00,20.000000,,2013-03-15 00:12:00,
2013-03-14 20:23:00,43.0,28.0,-100.00,WSW,256,2.0,8.0,55,0.00,,,0.00,20.000000,,2013-03-15 00:23:00,
2013-03-14 20:52:00,40.0,27.0,-100.00,WSW,242,2.0,3.0,59,0.00,,,0.00,0.000000,,2013-03-15 00:52:00,
2013-03-14 21:02:00,40.0,27.0,-100.00,WSW,242,2.0,3.0,59,0.00,,,0.00,0.000000,,2013-03-15 01:02:00,
2013-03-14 21:12:00,40.0,27.0,-100.00,WSW,242,2.0,3.0,59,0.00,,,0.00,0.000000,,2013-03-15 01:12:00,
2013-03-14 21:22:00,40.0,27.0,-100.00,WSW,242,2.0,3.0,59,0.00,,,0.00,0.000000,,2013-03-15 01:22:00,
2013-03-14 21:52:00,37.0,27.0,-100.00,WSW,253,2.0,4.0,67,0.00,,,0.00,0.000000,,2013-03-15 01:52:00,
2013-03-14 22:03:00,37.0,27.0,-100.00,WSW,253,2.0,4.0,67,0.00,,,0.00,0.000000,,2013-03-15 02:03:00,
2013-03-14 22:12:00,37.0,27.0,-100.00,WSW,253,2.0,4.0,67,0.00,,,0.00,0.000000,,2013-03-15 02:12:00,
2013-03-14 22:22:00,37.0,27.0,-100.00,WSW,253,2.0,4.0,67,0.00,,,0.00,0.000000,,2013-03-15 02:22:00,
2013-03-14 22:52:00,37.0,27.0,-100.00,WSW,249,2.0,5.0,67,0.00,,,0.00,0.000000,,2013-03-15 02:52:00,
2013-03-14 23:02:00,37.0,27.0,-100.00,WSW,249,2.0,5.0,67,0.00,,,0.00,0.000000,,2013-03-15 03:02:00,
2013-03-14 23:13:00,37.0,27.0,-100.00,WSW,249,2.0,5.0,67,0.00,,,0.00,0.000000,,2013-03-15 03:13:00,
2013-03-14 23:22:00,37.0,27.0,-100.00,WSW,249,2.0,5.0,67,0.00,,,0.00,0.000000,,2013-03-15 03:22:00,
2013-03-14 23:53:00,37.0,26.0,-100.00,WSW,247,2.0,5.0,64,0.00,,,0.00,0.000000,,2013-03-15 03:53:00,